Time;durP1;ratioP1;P1;durP2;ratioP2;P2;SDS_P1;SDS_P2;PMS_P1;PMS_P2;Temp;Humidity;BMP_temperature;BMP_pressure;BME280_temperature;BME280_humidity;BME280_pressure;Samples;Min_cycle;Max_cycle;Signal;HPM_P1;HPM_P2
2022/01/10 00:01:49;;;;;;;19.10;4.20;;;3.20;99.90;;;;;;5076119;28;20731;-69
2022/01/10 00:04:15;;;;;;;25.13;4.97;;;;;;;;;;5086761;28;20484;-69
2022/01/10 00:06:41;;;;;;;21.42;4.75;;;;;;;;;;5073484;28;20033;-69
2022/01/10 00:09:07;;;;;;;18.92;4.38;;;;;;;;;;5083619;28;20400;-69
2022/01/10 00:11:33;;;;;;;21.40;5.15;;;;;;;;;;5090096;28;20074;-69
2022/01/10 00:13:59;;;;;;;24.05;4.32;;;;;;;;;;5091687;28;20040;-69
2022/01/10 00:16:26;;;;;;;17.25;4.05;;;;;;;;;;5069195;28;20036;-69
2022/01/10 00:18:52;;;;;;;15.65;3.60;;;;;;;;;;5059480;28;20097;-69
2022/01/10 00:21:18;;;;;;;16.35;4.38;;;;;;;;;;5079228;28;20115;-69
2022/01/10 00:23:44;;;;;;;23.02;4.60;;;;;;;;;;5091891;28;20028;-69
2022/01/10 00:26:10;;;;;;;20.95;5.20;;;;;;;;;;5084057;28;20067;-69
2022/01/10 00:28:36;;;;;;;18.83;4.50;;;;;;;;;;5074531;28;20477;-69
2022/01/10 00:31:02;;;;;;;18.13;4.68;;;;;;;;;;5087084;28;20040;-69
2022/01/10 00:33:28;;;;;;;16.85;4.65;;;;;;;;;;5071556;28;20079;-69
2022/01/10 00:35:54;;;;;;;19.15;3.90;;;;;;;;;;5083399;28;20042;-69
2022/01/10 00:38:20;;;;;;;18.27;4.85;;;;;;;;;;5072688;28;20036;-69
2022/01/10 00:40:49;;;;;;;15.00;4.03;;;;;;;;;;5075131;28;20043;-69
2022/01/10 00:43:28;;;;;;;18.55;4.38;;;3.00;99.90;;;;;;5072814;28;20036;-69
2022/01/10 00:45:54;;;;;;;20.50;4.38;;;;;;;;;;5087336;28;20047;-69
2022/01/10 00:48:20;;;;;;;15.13;4.00;;;;;;;;;;5070485;28;20036;-69
2022/01/10 00:50:46;;;;;;;15.57;5.03;;;;;;;;;;5073439;28;20548;-69
2022/01/10 00:53:12;;;;;;;10.98;4.13;;;;;;;;;;5087989;28;20044;-69
2022/01/10 00:55:39;;;;;;;16.42;4.20;;;;;;;;;;5090501;28;20039;-69
2022/01/10 00:58:05;;;;;;;20.25;4.57;;;;;;;;;;5076555;28;20085;-69
2022/01/10 01:00:31;;;;;;;18.33;5.00;;;;;;;;;;5075255;28;20135;-69
2022/01/10 01:02:58;;;;;;;22.17;4.88;;;;;;;;;;5064591;28;20048;-69
2022/01/10 01:05:26;;;;;;;18.60;4.30;;;2.90;99.90;;;;;;5090899;28;20036;-69
2022/01/10 01:07:52;;;;;;;23.38;5.10;;;;;;;;;;5076550;28;20380;-69
2022/01/10 01:15:25;;;;;;;19.98;6.10;;;;;;;;;;5090664;28;20123;-70
2022/01/10 01:26:17;;;;;;;22.77;5.07;;;;;;;;;;5072413;28;20040;-70
2022/01/10 01:28:43;;;;;;;19.25;5.18;;;;;;;;;;5089972;28;20040;-70
2022/01/10 01:31:09;;;;;;;21.88;5.32;;;;;;;;;;5089616;28;20044;-70
2022/01/10 01:33:35;;;;;;;26.02;5.80;;;;;;;;;;5075501;28;20033;-70
2022/01/10 01:36:01;;;;;;;28.17;5.53;;;;;;;;;;5078780;28;20044;-70
2022/01/10 01:38:27;;;;;;;17.35;6.22;;;;;;;;;;5086591;28;20040;-71
2022/01/10 01:41:09;;;;;;;19.63;5.13;;;;;;;;;;5073972;28;20116;-69
2022/01/10 01:43:35;;;;;;;26.52;6.38;;;;;;;;;;5087238;28;20041;-69
2022/01/10 01:46:01;;;;;;;17.33;5.20;;;;;;;;;;5074597;28;20068;-69
2022/01/10 01:48:27;;;;;;;20.55;6.00;;;2.60;99.90;;;;;;5083945;28;20032;-70
2022/01/10 01:50:52;;;;;;;22.75;6.07;;;1.80;99.90;;;;;;5083456;28;20044;-69
2022/01/10 01:53:19;;;;;;;26.20;6.68;;;;;;;;;;5075141;28;20301;-69
2022/01/10 01:55:45;;;;;;;23.15;7.13;;;;;;;;;;5078601;28;20044;-69
2022/01/10 01:58:11;;;;;;;23.23;5.97;;;;;;;;;;5089865;28;20514;-69
2022/01/10 02:00:37;;;;;;;19.70;5.15;;;;;;;;;;5085506;28;20082;-69
2022/01/10 02:03:03;;;;;;;23.27;5.53;;;;;;;;;;5088000;28;20048;-69
2022/01/10 02:05:29;;;;;;;18.27;5.90;;;;;;;;;;5092940;28;20388;-70
2022/01/10 02:07:55;;;;;;;19.83;5.63;;;;;;;;;;5086611;28;20134;-70
2022/01/10 02:10:21;;;;;;;17.83;5.40;;;;;;;;;;5082342;28;20036;-70
2022/01/10 02:12:48;;;;;;;17.85;5.68;;;;;;;;;;5084693;28;20480;-70
2022/01/10 02:15:32;;;;;;;20.33;5.68;;;;;;;;;;5081333;28;20075;-70
2022/01/10 02:18:00;;;;;;;20.00;5.97;;;;;;;;;;5083646;28;20032;-70
2022/01/10 02:20:32;;;;;;;20.30;5.63;;;2.60;99.90;;;;;;5094549;28;20106;-70
2022/01/10 02:22:57;;;;;;;28.08;6.07;;;2.70;99.90;;;;;;5081467;28;20043;-69
2022/01/10 02:25:23;;;;;;;25.30;7.20;;;;;;;;;;5091002;28;20036;-69
2022/01/10 02:27:49;;;;;;;32.70;6.82;;;;;;;;;;5082328;28;20039;-69
2022/01/10 02:30:16;;;;;;;21.80;6.28;;;;;;;;;;5086305;28;20046;-69
2022/01/10 02:32:42;;;;;;;24.83;6.20;;;;;;;;;;5079489;28;20032;-70
2022/01/10 02:35:50;;;;;;;20.20;6.32;;;2.60;99.90;;;;;;5075949;28;20044;-70
2022/01/10 02:38:17;;;;;;;31.75;6.55;;;;;;;;;;5074246;28;20060;-70
2022/01/10 02:40:45;;;;;;;17.90;5.78;;;;;;;;;;5081098;28;20447;-69
2022/01/10 02:43:11;;;;;;;27.77;7.03;;;;;;;;;;5082293;28;20044;-69
2022/01/10 02:45:37;;;;;;;24.55;6.68;;;;;;;;;;5060363;28;20043;-69
2022/01/10 02:48:03;;;;;;;22.92;5.97;;;;;;;;;;5064375;28;20081;-70
2022/01/10 02:50:29;;;;;;;21.42;6.93;;;;;;;;;;5060539;28;20043;-71
2022/01/10 02:52:55;;;;;;;18.63;5.53;;;;;;;;;;5080573;28;20032;-72
2022/01/10 02:55:22;;;;;;;20.80;6.32;;;;;;;;;;5093722;28;20039;-72
2022/01/10 02:57:48;;;;;;;23.05;5.68;;;;;;;;;;5083664;28;20032;-72
2022/01/10 03:00:17;;;;;;;16.67;5.88;;;2.50;99.90;;;;;;5074310;28;20040;-72
2022/01/10 03:02:45;;;;;;;23.88;7.18;;;;;;;;;;5077117;28;20056;-72
2022/01/10 03:05:11;;;;;;;20.40;6.10;;;2.30;99.90;;;;;;5076379;28;20044;-72
2022/01/10 03:07:38;;;;;;;22.40;5.85;;;2.30;99.90;;;;;;5087661;28;20039;-72
2022/01/10 03:10:05;;;;;;;21.83;6.13;;;2.60;99.90;;;;;;5077789;28;20495;-72
2022/01/10 03:12:31;;;;;;;15.10;5.72;;;;;;;;;;5074793;28;20040;-72
2022/01/10 03:14:58;;;;;;;26.65;6.22;;;;;;;;;;5062320;28;20033;-72
2022/01/10 03:17:25;;;;;;;16.40;6.28;;;;;;;;;;5079643;28;20068;-71
2022/01/10 03:19:51;;;;;;;16.65;5.40;;;;;;;;;;5085572;28;20463;-72
2022/01/10 03:22:17;;;;;;;20.55;6.03;;;;;;;;;;5074409;28;20041;-72
2022/01/10 03:24:43;;;;;;;15.82;5.75;;;;;;;;;;5084822;28;20033;-72
2022/01/10 03:27:09;;;;;;;18.27;6.45;;;;;;;;;;5085184;28;20075;-72
2022/01/10 03:29:35;;;;;;;20.67;6.47;;;;;;;;;;5082784;28;20592;-72
2022/01/10 03:32:02;;;;;;;20.25;6.75;;;;;;;;;;5089888;28;20431;-72
2022/01/10 03:34:28;;;;;;;15.35;6.47;;;;;;;;;;5079896;28;20044;-72
2022/01/10 03:36:55;;;;;;;24.00;6.80;;;;;;;;;;5088945;28;20036;-72
2022/01/10 03:39:21;;;;;;;15.38;5.53;;;1.90;99.90;;;;;;5077408;28;20041;-72
2022/01/10 03:41:48;;;;;;;20.73;6.10;;;;;;;;;;5074107;28;20041;-72
2022/01/10 03:44:14;;;;;;;16.92;5.70;;;;;;;;;;5076394;28;20535;-72
2022/01/10 03:46:40;;;;;;;15.32;5.70;;;;;;;;;;5063802;28;20488;-72
2022/01/10 03:49:06;;;;;;;23.08;6.57;;;;;;;;;;5076240;28;20032;-72
2022/01/10 03:51:33;;;;;;;16.17;5.72;;;1.80;99.90;;;;;;5083621;28;20127;-72
2022/01/10 03:53:59;;;;;;;23.60;6.57;;;;;;;;;;5090855;28;20119;-72
2022/01/10 03:56:28;;;;;;;21.77;6.72;;;1.70;99.90;;;;;;5070149;28;20449;-73
2022/01/10 03:58:55;;;;;;;15.07;6.25;;;;;;;;;;5091193;28;20518;-72
2022/01/10 04:01:21;;;;;;;14.57;5.97;;;;;;;;;;5074164;28;20051;-72
2022/01/10 04:03:47;;;;;;;15.77;6.32;;;;;;;;;;5088612;28;20473;-72
2022/01/10 04:06:13;;;;;;;19.98;6.57;;;;;;;;;;5074804;28;20044;-72
2022/01/10 04:08:39;;;;;;;13.60;6.28;;;;;;;;;;5073690;28;20032;-72
2022/01/10 04:11:06;;;;;;;16.83;6.28;;;;;;;;;;5059617;28;20123;-72
2022/01/10 04:13:32;;;;;;;13.30;6.15;;;;;;;;;;5077053;28;20043;-72
2022/01/10 04:15:58;;;;;;;15.70;5.95;;;;;;;;;;5084366;28;20067;-72
2022/01/10 04:18:24;;;;;;;14.90;6.80;;;;;;;;;;5073508;28;20040;-72
2022/01/10 04:20:50;;;;;;;19.17;7.03;;;;;;;;;;5084720;28;20040;-72
2022/01/10 04:23:16;;;;;;;12.93;6.15;;;1.40;99.90;;;;;;5078863;28;20039;-72
2022/01/10 04:25:43;;;;;;;17.65;6.95;;;;;;;;;;5083229;28;20088;-72
2022/01/10 04:28:09;;;;;;;14.20;5.70;;;;;;;;;;5075820;28;20040;-72
2022/01/10 04:30:35;;;;;;;16.48;6.38;;;;;;;;;;5064280;28;20119;-73
2022/01/10 04:33:02;;;;;;;15.35;6.28;;;;;;;;;;5079696;28;20097;-73
2022/01/10 04:35:28;;;;;;;18.75;7.20;;;;;;;;;;5080283;28;20043;-73
2022/01/10 04:37:54;;;;;;;16.42;6.45;;;;;;;;;;5076089;28;20052;-73
2022/01/10 04:40:21;;;;;;;22.60;6.07;;;;;;;;;;5076453;28;20388;-73
2022/01/10 04:42:47;;;;;;;19.13;6.15;;;;;;;;;;5080549;28;20032;-73
2022/01/10 04:45:13;;;;;;;12.55;5.82;;;1.40;99.90;;;;;;5077124;28;20043;-73
2022/01/10 04:47:40;;;;;;;17.88;6.18;;;;;;;;;;5069491;28;20396;-73
2022/01/10 04:50:36;;;;;;;12.38;6.13;;;1.80;99.90;;;;;;5086472;28;20492;-73
2022/01/10 04:52:59;;;;;;;18.65;6.75;;;;;;;;;;5074092;28;20048;-73
2022/01/10 04:55:25;;;;;;;17.55;6.20;;;;;;;;;;5084209;28;20086;-73
2022/01/10 04:57:51;;;;;;;21.42;7.85;;;;;;;;;;5075360;28;20040;-73
2022/01/10 05:00:17;;;;;;;22.17;6.43;;;;;;;;;;5074029;28;20392;-73
2022/01/10 05:02:46;;;;;;;17.83;6.68;;;1.30;99.90;;;;;;5080299;28;20044;-72
2022/01/10 05:05:12;;;;;;;15.70;6.65;;;;;;;;;;5087613;28;20052;-73
2022/01/10 05:07:38;;;;;;;15.45;6.28;;;;;;;;;;5084978;28;20461;-73
2022/01/10 05:10:04;;;;;;;13.88;6.78;;;1.80;99.90;;;;;;5081789;28;20396;-73
2022/01/10 05:12:30;;;;;;;17.42;6.68;;;;;;;;;;5085755;28;20044;-73
2022/01/10 05:14:56;;;;;;;12.90;6.47;;;;;;;;;;5072604;28;20079;-73
2022/01/10 05:17:24;;;;;;;13.07;6.55;;;;;;;;;;5072518;28;20044;-73
2022/01/10 05:19:50;;;;;;;12.65;6.75;;;;;;;;;;5092828;28;20403;-73
2022/01/10 05:22:16;;;;;;;11.93;6.65;;;;;;;;;;5092524;28;20044;-73
2022/01/10 05:24:42;;;;;;;17.13;8.18;;;;;;;;;;5091804;28;20032;-71
2022/01/10 05:27:09;;;;;;;11.40;7.28;;;;;;;;;;5075621;28;20068;-71
2022/01/10 05:29:35;;;;;;;13.75;7.32;;;;;;;;;;5088217;28;20033;-71
2022/01/10 05:32:01;;;;;;;14.13;6.68;;;;;;;;;;5070943;28;20040;-71
2022/01/10 05:34:27;;;;;;;21.60;7.35;;;;;;;;;;5071260;28;20070;-72
2022/01/10 05:36:53;;;;;;;12.77;7.10;;;;;;;;;;5055565;28;20105;-71
2022/01/10 05:39:19;;;;;;;13.65;7.28;;;;;;;;;;5071965;28;20072;-72
2022/01/10 05:41:45;;;;;;;14.05;7.72;;;;;;;;;;5072226;28;20071;-72
2022/01/10 05:44:11;;;;;;;20.20;7.63;;;;;;;;;;5072145;28;20043;-72
2022/01/10 05:46:38;;;;;;;11.40;7.53;;;1.10;99.90;;;;;;5072386;28;20464;-72
2022/01/10 05:49:04;;;;;;;12.55;7.10;;;;;;;;;;5071976;28;20485;-72
2022/01/10 05:51:37;;;;;;;13.65;7.53;;;1.10;99.90;;;;;;5072394;28;20070;-72
2022/01/10 05:54:06;;;;;;;18.40;7.60;;;0.90;99.90;;;;;;5071809;28;20493;-72
2022/01/10 05:56:32;;;;;;;14.40;7.57;;;;;;;;;;5071860;28;20076;-72
2022/01/10 05:59:02;;;;;;;14.88;7.30;;;1.00;99.90;;;;;;5055192;28;20611;-72
2022/01/10 06:01:29;;;;;;;43.25;8.05;;;;;;;;;;5054861;28;20055;-73
2022/01/10 06:03:55;;;;;;;23.40;8.02;;;0.80;99.90;;;;;;5055154;28;20045;-72
2022/01/10 06:06:21;;;;;;;14.63;7.90;;;;;;;;;;5057493;28;20036;-72
2022/01/10 06:08:47;;;;;;;22.17;8.68;;;;;;;;;;5092330;28;20032;-72
2022/01/10 06:11:14;;;;;;;37.80;8.73;;;;;;;;;;5072929;28;20481;-72
2022/01/10 06:13:40;;;;;;;15.40;7.82;;;;;;;;;;5068610;28;20561;-72
2022/01/10 06:16:06;;;;;;;15.30;8.77;;;;;;;;;;5058217;28;20124;-72
2022/01/10 06:18:33;;;;;;;25.85;8.02;;;;;;;;;;5088351;28;20491;-72
2022/01/10 06:20:59;;;;;;;11.77;8.52;;;;;;;;;;5077254;28;20464;-72
2022/01/10 06:23:25;;;;;;;71.50;10.05;;;;;;;;;;5077651;28;20033;-72
2022/01/10 06:25:51;;;;;;;27.80;9.20;;;;;;;;;;5080181;28;20412;-72
2022/01/10 06:28:18;;;;;;;27.40;9.25;;;;;;;;;;5074590;28;20040;-72
2022/01/10 06:30:44;;;;;;;44.40;9.02;;;;;;;;;;5053798;28;20119;-72
2022/01/10 06:33:10;;;;;;;104.00;9.98;;;;;;;;;;5075217;28;20078;-72
2022/01/10 06:35:37;;;;;;;24.00;9.30;;;;;;;;;;5082114;28;20479;-72
2022/01/10 06:38:03;;;;;;;40.25;9.82;;;;;;;;;;5079860;28;20046;-71
2022/01/10 06:40:29;;;;;;;17.23;10.05;;;;;;;;;;5074856;28;20032;-72
2022/01/10 06:42:55;;;;;;;37.25;10.18;;;;;;;;;;5089491;28;20043;-71
2022/01/10 06:45:22;;;;;;;56.45;10.75;;;;;;;;;;5093023;28;20040;-72
2022/01/10 06:47:49;;;;;;;98.57;12.15;;;;;;;;;;5077535;28;20041;-71
2022/01/10 06:50:15;;;;;;;58.28;10.98;;;;;;;;;;5074404;28;20484;-72
2022/01/10 06:52:41;;;;;;;65.30;11.90;;;;;;;;;;5080267;28;20051;-72
2022/01/10 06:55:08;;;;;;;35.30;11.90;;;;;;;;;;5074699;28;20041;-72
2022/01/10 06:57:34;;;;;;;132.27;13.90;;;;;;;;;;5077441;28;20488;-71
2022/01/10 07:00:02;;;;;;;31.75;13.20;;;;;;;;;;5074915;28;20040;-72
2022/01/10 07:02:28;;;;;;;26.60;12.73;;;;;;;;;;5078907;28;20080;-71
2022/01/10 07:04:55;;;;;;;42.22;13.50;;;;;;;;;;5094375;28;20036;-71
2022/01/10 07:07:21;;;;;;;60.88;14.18;;;;;;;;;;5064460;28;20083;-71
2022/01/10 07:09:47;;;;;;;43.65;13.25;;;;;;;;;;5077284;28;20032;-72
2022/01/10 07:12:13;;;;;;;121.88;14.10;;;;;;;;;;5082391;28;20036;-71
2022/01/10 07:14:39;;;;;;;86.13;13.50;;;;;;;;;;5077444;28;20041;-72
2022/01/10 07:17:06;;;;;;;18.15;10.80;;;;;;;;;;5062690;28;20037;-76
2022/01/10 07:19:32;;;;;;;62.95;12.98;;;;;;;;;;5078829;28;20496;-72
2022/01/10 07:21:58;;;;;;;19.42;12.60;;;;;;;;;;5074451;28;20036;-72
2022/01/10 07:24:24;;;;;;;24.58;13.40;;;;;;;;;;5074960;28;20055;-72
2022/01/10 07:26:50;;;;;;;27.83;12.75;;;;;;;;;;5074365;28;20040;-71
2022/01/10 07:29:16;;;;;;;27.15;13.73;;;;;;;;;;5074324;28;20036;-72
2022/01/10 07:31:43;;;;;;;21.30;13.80;;;;;;;;;;5074360;28;20602;-71
2022/01/10 07:34:14;;;;;;;22.92;13.95;;;;;;;;;;5074330;28;20044;-71
2022/01/10 07:36:43;;;;;;;22.38;14.27;;;1.20;99.90;;;;;;5074435;28;20123;-72
2022/01/10 07:39:10;;;;;;;20.85;15.18;;;;;;;;;;5089988;28;20036;-72
2022/01/10 07:41:36;;;;;;;22.15;12.98;;;;;;;;;;5074259;28;20048;-72
2022/01/10 07:44:03;;;;;;;33.65;13.40;;;;;;;;;;5074133;28;20041;-73
2022/01/10 07:46:29;;;;;;;26.08;13.98;;;;;;;;;;5073460;28;20036;-72
2022/01/10 07:48:55;;;;;;;19.45;13.73;;;;;;;;;;5073958;28;20119;-72
2022/01/10 07:51:26;;;;;;;25.98;13.43;;;1.00;99.90;;;;;;5057946;28;20040;-72
2022/01/10 07:53:52;;;;;;;26.38;13.13;;;;;;;;;;5074355;28;20494;-72
2022/01/10 07:56:19;;;;;;;26.15;12.50;;;;;;;;;;5073951;28;20078;-72
2022/01/10 07:58:48;;;;;;;28.95;12.63;;;;;;;;;;5073798;28;20040;-72
2022/01/10 08:01:14;;;;;;;107.50;14.43;;;;;;;;;;5073440;28;20048;-72
2022/01/10 08:03:40;;;;;;;34.67;13.70;;;1.00;99.90;;;;;;5057209;28;20048;-72
2022/01/10 08:06:06;;;;;;;83.13;13.80;;;;;;;;;;5057121;28;20043;-72
2022/01/10 08:08:33;;;;;;;33.15;14.82;;;;;;;;;;5073614;28;20044;-72
2022/01/10 08:11:00;;;;;;;34.88;14.55;;;;;;;;;;5057530;28;20052;-73
2022/01/10 08:13:26;;;;;;;31.90;18.33;;;;;;;;;;5073947;28;20040;-72
2022/01/10 08:15:52;;;;;;;34.92;18.00;;;;;;;;;;5056984;28;20388;-72
2022/01/10 08:18:18;;;;;;;34.47;15.95;;;;;;;;;;5073873;28;20399;-73
2022/01/10 08:20:44;;;;;;;56.53;14.55;;;;;;;;;;5073250;28;20032;-72
2022/01/10 08:23:10;;;;;;;28.85;14.40;;;;;;;;;;5073629;28;20052;-72
2022/01/10 08:25:36;;;;;;;26.80;13.65;;;;;;;;;;5073268;28;20040;-72
2022/01/10 08:28:02;;;;;;;38.33;14.40;;;;;;;;;;5073579;28;20044;-72
2022/01/10 08:30:28;;;;;;;46.58;15.02;;;;;;;;;;5073516;28;20455;-73
2022/01/10 08:32:54;;;;;;;21.27;14.90;;;;;;;;;;5056536;28;20048;-72
2022/01/10 08:35:20;;;;;;;20.15;14.23;;;;;;;;;;5056460;28;20087;-72
2022/01/10 08:37:46;;;;;;;93.00;15.60;;;;;;;;;;5073297;28;20389;-73
2022/01/10 08:40:13;;;;;;;24.27;15.00;;;;;;;;;;5072921;28;20049;-72
2022/01/10 08:42:39;;;;;;;41.80;16.05;;;;;;;;;;5072895;28;20043;-72
2022/01/10 08:45:08;;;;;;;25.25;15.30;;;;;;;;;;5073049;28;20048;-72
2022/01/10 08:47:34;;;;;;;43.20;16.33;;;;;;;;;;5073088;28;20047;-72
2022/01/10 08:50:00;;;;;;;22.90;16.45;;;;;;;;;;5072693;28;20047;-72
2022/01/10 08:52:26;;;;;;;24.25;15.45;;;;;;;;;;5072834;28;20040;-72
2022/01/10 08:54:52;;;;;;;24.67;16.33;;;;;;;;;;5072818;28;20047;-72
2022/01/10 08:57:18;;;;;;;27.67;17.38;;;;;;;;;;5072808;28;20051;-72
2022/01/10 08:59:45;;;;;;;29.98;18.08;;;;;;;;;;5072758;28;20032;-72
2022/01/10 09:02:11;;;;;;;27.45;17.13;;;;;;;;;;5072492;28;20076;-72
2022/01/10 09:04:40;;;;;;;24.83;15.82;;;1.20;99.90;;;;;;5072802;28;20148;-72
2022/01/10 09:07:08;;;;;;;26.33;16.45;;;;;;;;;;5056176;28;20193;-72
2022/01/10 09:09:35;;;;;;;26.85;17.45;;;1.10;99.90;;;;;;5072734;28;20040;-72
2022/01/10 09:12:01;;;;;;;28.88;16.67;;;;;;;;;;5072559;28;20044;-72
2022/01/10 09:14:27;;;;;;;28.63;17.48;;;;;;;;;;5072438;28;20046;-73
2022/01/10 09:16:53;;;;;;;31.27;18.48;;;;;;;;;;5072460;28;20044;-72
2022/01/10 09:19:19;;;;;;;29.83;17.42;;;;;;;;;;5072351;28;20051;-72
2022/01/10 09:21:45;;;;;;;31.92;18.27;;;;;;;;;;5072329;28;20076;-72
2022/01/10 09:24:12;;;;;;;35.83;19.05;;;;;;;;;;5072280;28;20037;-72
2022/01/10 09:26:38;;;;;;;29.30;18.55;;;;;;;;;;5056014;28;20458;-72
2022/01/10 09:29:04;;;;;;;29.60;17.98;;;;;;;;;;5072112;28;20036;-72
2022/01/10 09:31:30;;;;;;;32.45;19.27;;;;;;;;;;5072116;28;20041;-72
2022/01/10 09:33:56;;;;;;;30.88;18.38;;;;;;;;;;5072052;28;20154;-72
2022/01/10 09:36:28;;;;;;;36.88;19.90;;;1.80;99.90;;;;;;5072070;28;20400;-72
2022/01/10 09:38:55;;;;;;;37.10;19.20;;;1.90;99.90;;;;;;5072139;28;20493;-72
2022/01/10 09:41:22;;;;;;;38.45;21.20;;;;;;;;;;5072388;28;20037;-71
2022/01/10 09:43:52;;;;;;;40.95;21.15;;;1.80;99.90;;;;;;5072102;28;20044;-72
2022/01/10 09:46:18;;;;;;;34.75;20.13;;;1.70;99.90;;;;;;5055253;28;20044;-72
2022/01/10 09:48:45;;;;;;;36.40;20.58;;;;;;;;;;5071576;28;20119;-71
2022/01/10 09:51:11;;;;;;;36.15;20.80;;;;;;;;;;5069905;28;20043;-71
2022/01/10 09:53:37;;;;;;;43.05;21.60;;;;;;;;;;5054450;28;20048;-71
2022/01/10 09:56:03;;;;;;;34.90;19.63;;;2.10;99.90;;;;;;5070558;28;20048;-71
2022/01/10 09:58:29;;;;;;;37.80;21.10;;;1.60;99.90;;;;;;5055239;28;20059;-71
2022/01/10 10:00:59;;;;;;;39.72;21.02;;;2.20;99.90;;;;;;5071794;28;20141;-71
2022/01/10 10:03:25;;;;;;;37.00;20.33;;;;;;;;;;5071759;28;20068;-72
2022/01/10 10:05:54;;;;;;;40.08;21.00;;;2.20;99.90;;;;;;5071965;28;20044;-71
2022/01/10 10:08:25;;;;;;;42.08;22.13;;;2.10;99.90;;;;;;5055042;28;20047;-71
2022/01/10 10:10:52;;;;;;;37.33;22.02;;;2.20;99.90;;;;;;5073987;28;20131;-71
2022/01/10 10:13:19;;;;;;;44.20;21.70;;;1.80;99.90;;;;;;5075870;28;20079;-71
2022/01/10 10:15:48;;;;;;;42.88;21.42;;;;;;;;;;5075693;28;20044;-71
2022/01/10 10:18:17;;;;;;;39.67;21.15;;;2.30;99.90;;;;;;5075589;28;20036;-71
2022/01/10 10:20:44;;;;;;;40.10;22.35;;;2.40;99.90;;;;;;5058906;28;20468;-71
2022/01/10 10:23:16;;;;;;;40.63;22.55;;;;;;;;;;5059220;28;20415;-71
2022/01/10 10:25:48;;;;;;;;;;;2.50;99.90;;;;;;5075984;28;20128;-71
2022/01/10 10:28:14;;;;;;;46.85;22.55;;;;;;;;;;5059188;28;19983;-71
2022/01/10 10:30:41;;;;;;;46.47;23.70;;;;;;;;;;5075515;28;20078;-70
2022/01/10 10:33:23;;;;;;;39.08;23.48;;;2.50;99.90;;;;;;5075715;28;20153;-71
2022/01/10 10:36:06;;;;;;;46.20;22.93;;;2.60;99.90;;;;;;5075249;28;20036;-71
2022/01/10 10:38:33;;;;;;;43.22;24.73;;;;;;;;;;5058586;28;20275;-71
2022/01/10 10:41:00;;;;;;;50.47;23.33;;;2.50;99.90;;;;;;5075138;28;20047;-71
2022/01/10 10:43:32;;;;;;;47.13;25.05;;;2.60;99.90;;;;;;5075376;28;20040;-70
2022/01/10 10:46:03;;;;;;;46.25;24.35;;;2.80;99.90;;;;;;5075374;28;20094;-71
2022/01/10 10:48:30;;;;;;;46.38;25.60;;;;;;;;;;5075111;28;20045;-71
2022/01/10 10:50:59;;;;;;;49.80;24.33;;;2.90;99.90;;;;;;5058761;28;20040;-71
2022/01/10 10:53:27;;;;;;;44.92;25.10;;;;;;;;;;5075305;28;20050;-71
2022/01/10 10:55:53;;;;;;;53.15;24.42;;;;;;;;;;5075194;28;20076;-71
2022/01/10 10:58:19;;;;;;;47.88;26.00;;;;;;;;;;5074971;28;20041;-71
2022/01/10 11:00:45;;;;;;;48.60;25.40;;;;;;;;;;5074961;28;20036;-68
2022/01/10 11:03:12;;;;;;;49.40;26.35;;;;;;;;;;5074795;28;20049;-68
2022/01/10 11:05:38;;;;;;;53.00;25.67;;;;;;;;;;5075126;28;20105;-68
2022/01/10 11:08:05;;;;;;;54.72;27.88;;;;;;;;;;5074625;28;20037;-69
2022/01/10 11:10:31;;;;;;;46.58;25.98;;;;;;;;;;5058133;28;20052;-69
2022/01/10 11:12:59;;;;;;;47.45;25.02;;;3.60;99.90;;;;;;5057907;28;20037;-69
2022/01/10 11:15:25;;;;;;;53.38;27.92;;;4.20;99.90;;;;;;5074798;28;20067;-69
2022/01/10 11:18:00;;;;;;;49.45;25.60;;;;;;;;;;5074151;28;20043;-69
2022/01/10 11:20:27;;;;;;;51.05;27.00;;;;;;;;;;5074316;28;20500;-69
2022/01/10 11:22:58;;;;;;;54.65;27.27;;;3.80;99.90;;;;;;5073150;28;20058;-69
2022/01/10 11:25:27;;;;;;;47.40;27.55;;;;;;;;;;5073957;28;20040;-70
2022/01/10 11:27:54;;;;;;;54.92;25.98;;;;;;;;;;5077056;28;20036;-69
2022/01/10 11:30:31;;;;;;;52.80;26.65;;;4.40;99.90;;;;;;5058468;28;20068;-72
2022/01/10 11:33:06;;;;;;;57.33;27.85;;;;;;;;;;5081070;28;20434;-72
2022/01/10 11:36:03;;;;;;;52.30;25.88;;;4.40;99.90;;;;;;5063189;28;20042;-72
2022/01/10 11:38:45;;;;;;;51.25;26.05;;;4.60;99.90;;;;;;5092923;28;20543;-72
2022/01/10 11:41:16;;;;;;;49.83;26.60;;;4.80;99.90;;;;;;5074408;28;20049;-72
2022/01/10 11:43:56;;;;;;;41.88;24.73;;;4.10;99.90;;;;;;5093682;28;20556;-70
2022/01/10 11:46:41;;;;;;;39.83;24.42;;;5.00;99.90;;;;;;5093872;28;20047;-69
2022/01/10 11:49:11;;;;;;;50.15;25.30;;;5.00;99.90;;;;;;5093481;28;20070;-69
2022/01/10 11:51:40;;;;;;;39.08;24.15;;;5.70;99.90;;;;;;5092088;28;20125;-69
2022/01/10 11:54:26;;;;;;;42.88;24.15;;;5.50;99.90;;;;;;5074408;28;20386;-69
2022/01/10 11:56:52;;;;;;;41.78;22.80;;;;;;;;;;5076733;28;20046;-70
2022/01/10 11:59:18;;;;;;;46.63;24.30;;;;;;;;;;5090671;28;20041;-69
2022/01/10 12:01:47;;;;;;;42.08;23.15;;;;;;;;;;5073125;28;20054;-69
2022/01/10 12:04:14;;;;;;;42.08;23.20;;;5.70;99.90;;;;;;5093964;28;20044;-70
2022/01/10 12:06:43;;;;;;;38.42;22.27;;;;;;;;;;5093421;28;20484;-70
2022/01/10 12:09:09;;;;;;;43.15;22.40;;;;;;;;;;5085939;28;20044;-70
2022/01/10 12:11:37;;;;;;;36.95;21.38;;;;;;;;;;5057147;28;20051;-70
2022/01/10 12:14:03;;;;;;;35.63;22.13;;;6.00;99.90;;;;;;5092915;28;20426;-70
2022/01/10 12:16:30;;;;;;;37.70;21.35;;;;;;;;;;5087939;28;20044;-70
2022/01/10 12:18:57;;;;;;;38.25;21.58;;;5.90;99.90;;;;;;5073742;28;20059;-70
2022/01/10 12:21:23;;;;;;;37.75;21.58;;;;;;;;;;5077554;28;20426;-70
2022/01/10 12:23:52;;;;;;;40.80;21.08;;;;;;;;;;5093909;28;20043;-70
2022/01/10 12:26:20;;;;;;;36.78;20.90;;;6.00;99.90;;;;;;5089435;28;20033;-70
2022/01/10 12:28:48;;;;;;;43.55;23.15;;;;;;;;;;5088658;28;20079;-69
2022/01/10 12:31:16;;;;;;;42.83;21.80;;;6.00;99.90;;;;;;5093533;28;20040;-69
2022/01/10 12:33:42;;;;;;;43.05;21.52;;;;;;;;;;5092834;28;20040;-69
2022/01/10 12:36:09;;;;;;;37.58;19.70;;;;;;;;;;5093221;28;20245;-69
2022/01/10 12:38:34;;;;;;;32.47;19.67;;;6.00;99.90;;;;;;5093434;28;20044;-69
2022/01/10 12:41:00;;;;;;;47.40;20.98;;;;;;;;;;5093257;28;20051;-69
2022/01/10 12:43:26;;;;;;;40.92;20.67;;;;;;;;;;5093324;28;20072;-69
2022/01/10 12:45:53;;;;;;;38.88;21.00;;;6.10;99.90;;;;;;5093452;28;20149;-69
2022/01/10 12:48:19;;;;;;;41.55;21.65;;;;;;;;;;5093009;28;20032;-69
2022/01/10 12:50:48;;;;;;;40.72;20.30;;;;;;;;;;5075247;28;20040;-69
2022/01/10 12:53:15;;;;;;;45.35;21.70;;;6.40;99.90;;;;;;5093287;28;20071;-69
2022/01/10 12:55:41;;;;;;;40.30;19.45;;;;;;;;;;5075143;28;20072;-69
2022/01/10 12:58:08;;;;;;;37.30;19.35;;;;;;;;;;5093087;28;20492;-69
2022/01/10 13:00:35;;;;;;;33.45;18.35;;;7.00;99.90;;;;;;5076434;28;20068;-69
2022/01/10 13:03:02;;;;;;;36.58;19.02;;;;;;;;;;5075802;28;20110;-69
2022/01/10 13:05:29;;;;;;;32.60;18.52;;;6.80;99.90;;;;;;5092830;28;20122;-69
2022/01/10 13:07:55;;;;;;;39.40;18.65;;;;;;;;;;5093089;28;20032;-69
2022/01/10 13:10:24;;;;;;;41.83;20.05;;;;;;;;;;5092813;28;20484;-69
2022/01/10 13:12:54;;;;;;;33.33;18.10;;;6.60;99.90;;;;;;5092673;28;20048;-69
2022/01/10 13:15:21;;;;;;;42.70;18.20;;;;;;;;;;5092823;28;20040;-69
2022/01/10 13:18:00;;;;;;;34.03;18.02;;;7.20;99.90;;;;;;5093153;28;20054;-69
2022/01/10 13:20:28;;;;;;;37.60;18.15;;;7.60;99.90;;;;;;5092849;28;20046;-69
2022/01/10 13:23:01;;;;;;;35.92;20.02;;;7.30;99.90;;;;;;5092801;28;20044;-69
2022/01/10 13:25:32;;;;;;;40.47;19.10;;;7.10;99.90;;;;;;5092547;28;20074;-69
2022/01/10 13:28:09;;;;;;;32.45;18.42;;;7.10;99.90;;;;;;5092487;28;20044;-69
2022/01/10 13:30:39;;;;;;;34.40;19.13;;;7.50;99.90;;;;;;5093659;28;20040;-69
2022/01/10 13:33:07;;;;;;;38.80;20.08;;;7.40;99.90;;;;;;5092619;28;20040;-69
2022/01/10 13:35:36;;;;;;;34.13;20.23;;;7.50;99.90;;;;;;5075781;28;20046;-69
2022/01/10 13:38:15;;;;;;;40.40;20.52;;;7.70;99.90;;;;;;5092785;28;20044;-69
2022/01/10 13:40:41;;;;;;;38.53;19.58;;;;;;;;;;5092239;28;20048;-69
2022/01/10 13:43:09;;;;;;;39.75;20.33;;;7.70;99.90;;;;;;5092245;28;20041;-69
2022/01/10 13:45:43;;;;;;;32.05;19.05;;;7.70;99.90;;;;;;5091468;28;20040;-69
2022/01/10 13:48:16;;;;;;;35.33;19.13;;;7.80;99.90;;;;;;5092058;28;20036;-69
2022/01/10 13:50:57;;;;;;;40.67;19.40;;;7.60;99.90;;;;;;5092092;28;20040;-69
2022/01/10 13:53:27;;;;;;;35.05;19.00;;;;;;;;;;5092470;28;20036;-69
2022/01/10 13:56:15;;;;;;;36.67;19.52;;;7.80;99.90;;;;;;5092381;28;20044;-69
2022/01/10 13:58:53;;;;;;;34.20;18.35;;;7.50;99.90;;;;;;5075490;28;20032;-69
2022/01/10 14:01:22;;;;;;;38.13;19.88;;;7.80;99.90;;;;;;5092312;28;20502;-69
2022/01/10 14:03:49;;;;;;;41.15;20.15;;;;;;;;;;5091825;28;20048;-69
2022/01/10 14:06:20;;;;;;;35.28;19.10;;;8.30;99.90;;;;;;5092088;28;20036;-70
2022/01/10 14:08:46;;;;;;;38.92;19.15;;;;;;;;;;5092079;28;20043;-69
2022/01/10 14:11:14;;;;;;;31.30;19.40;;;7.90;99.90;;;;;;5092256;28;20040;-69